createdAt,value
2017-08-24T00:00:02.959Z,14.8
2017-08-24T00:05:02.849Z,14.74
2017-08-24T00:10:03.038Z,14.68
2017-08-24T00:15:02.250Z,14.62
2017-08-24T00:20:02.831Z,14.57
2017-08-24T00:25:02.992Z,14.52
2017-08-24T00:30:02.186Z,14.47
2017-08-24T00:35:02.541Z,14.42
2017-08-24T00:40:02.778Z,14.4
2017-08-24T00:45:03.007Z,14.4
2017-08-24T00:50:02.203Z,14.4
2017-08-24T00:55:02.445Z,14.38
2017-08-24T01:00:02.645Z,14.39
2017-08-24T01:05:02.149Z,14.36
2017-08-24T01:10:02.427Z,14.35
2017-08-24T01:15:02.649Z,14.36
2017-08-24T01:20:02.748Z,14.35
2017-08-24T01:25:02.937Z,14.34
2017-08-24T01:30:02.153Z,14.33
2017-08-24T01:35:02.498Z,14.33
2017-08-24T01:40:02.721Z,14.32
2017-08-24T01:45:02.933Z,14.32
2017-08-24T01:50:02.201Z,14.32
2017-08-24T01:55:02.429Z,14.32
2017-08-24T02:00:02.672Z,14.3
2017-08-24T02:05:02.351Z,14.29
2017-08-24T02:10:02.583Z,14.28
2017-08-24T02:15:02.801Z,14.26
2017-08-24T02:20:03.086Z,14.23
2017-08-24T02:25:02.277Z,14.2
2017-08-24T02:30:02.462Z,14.2
2017-08-24T02:35:02.139Z,14.19
2017-08-24T02:40:02.358Z,14.17
2017-08-24T02:45:02.577Z,14.14
2017-08-24T02:50:02.247Z,14.13
2017-08-24T02:55:02.469Z,14.12
2017-08-24T03:00:02.668Z,14.1
2017-08-24T03:05:03.001Z,14.07
2017-08-24T03:10:02.225Z,14.06
2017-08-24T03:15:02.444Z,14.05
2017-08-24T03:20:02.610Z,14.01
2017-08-24T03:25:02.804Z,14
2017-08-24T03:30:02.955Z,13.97
2017-08-24T03:35:02.183Z,13.96
2017-08-24T03:40:02.416Z,13.94
2017-08-24T03:45:02.623Z,13.93
2017-08-24T03:50:03.013Z,13.89
2017-08-24T03:55:02.255Z,13.9
2017-08-24T04:00:02.470Z,13.92
2017-08-24T04:05:02.775Z,13.92
2017-08-24T04:10:02.977Z,13.95
2017-08-24T04:15:02.169Z,13.98
2017-08-24T04:20:02.843Z,13.99
2017-08-24T04:25:03.135Z,14.03
2017-08-24T04:30:02.312Z,14.09
2017-08-24T04:35:03.047Z,14.23
